Brookville, Ohio
Current Conditions -  °F | °C
As of 11:56 PM on Sunday 19 Oct 2014 (Local Time) from KDAY Reporting Station
Broken Clouds Broken Clouds  
Wind Chill: 43°   Ceiling: 20000
Heat Index: 46°   Visibility: 10mi
Dew Point: 39°   Wind: 6mph
Humidity: 76%   Direction: 210°SSW
Pressure: 30.05"   Gusts: NA
Location:  39.84°N, 84.41°W
Report Text: KDAY 200356Z 21005KT 10SM BKN200 08/04 A3005 RMK AO2 SLP179 T00780039
Loading
Personal Weather Stations






























Interactive Weather Map
Tropical Storm Tracking
New forecast layout! Learn more

10-Day Weather Forecast

Advertisements
Track Severe Weather on mobile